sensor_id;sensor_type;location;lat;lon;timestamp;P1;durP1;ratioP1;P2;durP2;ratioP2
33357;SDS011;19717;42.614;23.418;2022-09-01T00:00:31;30.80;;;19.65;;
33357;SDS011;19717;42.614;23.418;2022-09-01T00:02:58;33.45;;;19.88;;
33357;SDS011;19717;42.614;23.418;2022-09-01T00:05:24;35.00;;;19.75;;
33357;SDS011;19717;42.614;23.418;2022-09-01T00:07:51;31.58;;;18.63;;
33357;SDS011;19717;42.614;23.418;2022-09-01T00:10:17;29.48;;;19.00;;
33357;SDS011;19717;42.614;23.418;2022-09-01T00:12:43;30.60;;;19.50;;
33357;SDS011;19717;42.614;23.418;2022-09-01T00:15:10;32.58;;;18.98;;
33357;SDS011;19717;42.614;23.418;2022-09-01T00:17:37;32.33;;;19.35;;
33357;SDS011;19717;42.614;23.418;2022-09-01T00:20:03;31.33;;;19.80;;
33357;SDS011;19717;42.614;23.418;2022-09-01T00:22:29;27.80;;;18.33;;
33357;SDS011;19717;42.614;23.418;2022-09-01T00:24:57;26.40;;;17.98;;
33357;SDS011;19717;42.614;23.418;2022-09-01T00:27:25;29.88;;;18.10;;
33357;SDS011;19717;42.614;23.418;2022-09-01T00:29:51;30.75;;;19.42;;
33357;SDS011;19717;42.614;23.418;2022-09-01T00:32:17;30.23;;;16.83;;
33357;SDS011;19717;42.614;23.418;2022-09-01T00:34:43;29.63;;;17.40;;
33357;SDS011;19717;42.614;23.418;2022-09-01T00:37:10;26.60;;;16.55;;
33357;SDS011;19717;42.614;23.418;2022-09-01T00:39:36;25.15;;;17.42;;
33357;SDS011;19717;42.614;23.418;2022-09-01T00:42:02;26.40;;;16.08;;
33357;SDS011;19717;42.614;23.418;2022-09-01T00:44:28;28.42;;;16.63;;
33357;SDS011;19717;42.614;23.418;2022-09-01T00:46:55;26.23;;;16.65;;
33357;SDS011;19717;42.614;23.418;2022-09-01T00:49:31;25.08;;;16.45;;
33357;SDS011;19717;42.614;23.418;2022-09-01T00:52:01;28.10;;;16.98;;
33357;SDS011;19717;42.614;23.418;2022-09-01T00:54:31;28.65;;;17.70;;
33357;SDS011;19717;42.614;23.418;2022-09-01T00:56:58;32.13;;;19.05;;
33357;SDS011;19717;42.614;23.418;2022-09-01T00:59:25;28.58;;;18.17;;
33357;SDS011;19717;42.614;23.418;2022-09-01T01:01:51;31.08;;;19.45;;
33357;SDS011;19717;42.614;23.418;2022-09-01T01:04:18;28.52;;;18.75;;
33357;SDS011;19717;42.614;23.418;2022-09-01T01:06:45;30.73;;;18.55;;
33357;SDS011;19717;42.614;23.418;2022-09-01T01:09:16;29.85;;;18.83;;
33357;SDS011;19717;42.614;23.418;2022-09-01T01:11:43;30.42;;;18.23;;
33357;SDS011;19717;42.614;23.418;2022-09-01T01:14:12;30.25;;;19.45;;
33357;SDS011;19717;42.614;23.418;2022-09-01T01:16:43;26.67;;;17.38;;
33357;SDS011;19717;42.614;23.418;2022-09-01T01:19:15;25.85;;;17.30;;
33357;SDS011;19717;42.614;23.418;2022-09-01T01:22:03;29.45;;;18.35;;
33357;SDS011;19717;42.614;23.418;2022-09-01T01:24:49;33.35;;;18.80;;
33357;SDS011;19717;42.614;23.418;2022-09-01T01:27:16;26.88;;;17.30;;
33357;SDS011;19717;42.614;23.418;2022-09-01T01:29:45;26.83;;;17.80;;
33357;SDS011;19717;42.614;23.418;2022-09-01T01:32:12;28.35;;;18.85;;
33357;SDS011;19717;42.614;23.418;2022-09-01T01:34:39;31.60;;;19.63;;
33357;SDS011;19717;42.614;23.418;2022-09-01T01:37:09;29.50;;;18.20;;
33357;SDS011;19717;42.614;23.418;2022-09-01T01:39:38;28.83;;;19.10;;
33357;SDS011;19717;42.614;23.418;2022-09-01T01:42:07;29.38;;;18.90;;
33357;SDS011;19717;42.614;23.418;2022-09-01T01:44:35;32.53;;;19.10;;
33357;SDS011;19717;42.614;23.418;2022-09-01T01:47:04;32.92;;;18.67;;
33357;SDS011;19717;42.614;23.418;2022-09-01T01:49:32;31.65;;;19.92;;
33357;SDS011;19717;42.614;23.418;2022-09-01T01:51:58;27.58;;;17.63;;
33357;SDS011;19717;42.614;23.418;2022-09-01T01:54:25;30.27;;;19.02;;
33357;SDS011;19717;42.614;23.418;2022-09-01T01:56:53;31.80;;;18.83;;
33357;SDS011;19717;42.614;23.418;2022-09-01T01:59:21;27.80;;;17.90;;
33357;SDS011;19717;42.614;23.418;2022-09-01T02:01:48;26.88;;;17.25;;
33357;SDS011;19717;42.614;23.418;2022-09-01T02:04:15;29.63;;;17.60;;
33357;SDS011;19717;42.614;23.418;2022-09-01T02:06:43;27.65;;;17.00;;
33357;SDS011;19717;42.614;23.418;2022-09-01T02:09:10;24.25;;;16.77;;
33357;SDS011;19717;42.614;23.418;2022-09-01T02:11:36;26.35;;;17.15;;
33357;SDS011;19717;42.614;23.418;2022-09-01T02:14:02;27.98;;;18.23;;
33357;SDS011;19717;42.614;23.418;2022-09-01T02:16:29;24.55;;;16.17;;
33357;SDS011;19717;42.614;23.418;2022-09-01T02:18:57;25.98;;;17.63;;
33357;SDS011;19717;42.614;23.418;2022-09-01T02:21:23;25.88;;;16.75;;
33357;SDS011;19717;42.614;23.418;2022-09-01T02:23:55;24.70;;;16.85;;
33357;SDS011;19717;42.614;23.418;2022-09-01T02:26:29;24.85;;;16.90;;
33357;SDS011;19717;42.614;23.418;2022-09-01T02:28:56;24.48;;;16.50;;
33357;SDS011;19717;42.614;23.418;2022-09-01T02:31:23;24.45;;;16.55;;
33357;SDS011;19717;42.614;23.418;2022-09-01T02:33:50;29.75;;;16.92;;
33357;SDS011;19717;42.614;23.418;2022-09-01T02:36:18;26.92;;;17.30;;
33357;SDS011;19717;42.614;23.418;2022-09-01T02:38:45;24.27;;;16.45;;
33357;SDS011;19717;42.614;23.418;2022-09-01T02:41:12;26.70;;;17.40;;
33357;SDS011;19717;42.614;23.418;2022-09-01T02:43:39;23.23;;;16.35;;
33357;SDS011;19717;42.614;23.418;2022-09-01T02:46:10;26.17;;;17.03;;
33357;SDS011;19717;42.614;23.418;2022-09-01T02:48:36;26.38;;;17.30;;
33357;SDS011;19717;42.614;23.418;2022-09-01T02:51:14;27.60;;;17.00;;
33357;SDS011;19717;42.614;23.418;2022-09-01T02:53:40;27.20;;;17.35;;
33357;SDS011;19717;42.614;23.418;2022-09-01T02:56:08;27.63;;;15.75;;
33357;SDS011;19717;42.614;23.418;2022-09-01T02:58:36;25.00;;;16.55;;
33357;SDS011;19717;42.614;23.418;2022-09-01T03:03:44;24.90;;;16.08;;
33357;SDS011;19717;42.614;23.418;2022-09-01T03:06:10;25.30;;;16.20;;
33357;SDS011;19717;42.614;23.418;2022-09-01T03:08:37;25.35;;;16.35;;
33357;SDS011;19717;42.614;23.418;2022-09-01T03:11:04;23.92;;;16.10;;
33357;SDS011;19717;42.614;23.418;2022-09-01T03:13:32;24.02;;;14.75;;
33357;SDS011;19717;42.614;23.418;2022-09-01T03:15:58;26.27;;;16.10;;
33357;SDS011;19717;42.614;23.418;2022-09-01T03:18:24;25.70;;;17.33;;
33357;SDS011;19717;42.614;23.418;2022-09-01T03:20:50;24.20;;;16.55;;
33357;SDS011;19717;42.614;23.418;2022-09-01T03:23:17;26.13;;;16.08;;
33357;SDS011;19717;42.614;23.418;2022-09-01T03:25:44;25.77;;;17.73;;
33357;SDS011;19717;42.614;23.418;2022-09-01T03:28:11;27.45;;;16.67;;
33357;SDS011;19717;42.614;23.418;2022-09-01T03:30:38;24.20;;;16.05;;
33357;SDS011;19717;42.614;23.418;2022-09-01T03:33:05;27.00;;;17.00;;
33357;SDS011;19717;42.614;23.418;2022-09-01T03:35:32;24.73;;;16.05;;
33357;SDS011;19717;42.614;23.418;2022-09-01T03:37:58;27.88;;;15.80;;
33357;SDS011;19717;42.614;23.418;2022-09-01T03:40:29;23.00;;;16.13;;
33357;SDS011;19717;42.614;23.418;2022-09-01T03:43:00;24.92;;;16.58;;
33357;SDS011;19717;42.614;23.418;2022-09-01T03:45:27;21.48;;;14.57;;
33357;SDS011;19717;42.614;23.418;2022-09-01T03:47:54;23.13;;;15.20;;
33357;SDS011;19717;42.614;23.418;2022-09-01T03:50:24;23.65;;;15.35;;
33357;SDS011;19717;42.614;23.418;2022-09-01T03:52:56;25.02;;;16.60;;
33357;SDS011;19717;42.614;23.418;2022-09-01T03:55:24;26.30;;;17.50;;
33357;SDS011;19717;42.614;23.418;2022-09-01T03:57:55;24.58;;;16.10;;
33357;SDS011;19717;42.614;23.418;2022-09-01T04:00:22;27.77;;;17.02;;
33357;SDS011;19717;42.614;23.418;2022-09-01T04:02:49;24.42;;;16.20;;
33357;SDS011;19717;42.614;23.418;2022-09-01T04:05:18;26.08;;;16.50;;
33357;SDS011;19717;42.614;23.418;2022-09-01T04:07:46;24.90;;;16.75;;
33357;SDS011;19717;42.614;23.418;2022-09-01T04:10:13;31.23;;;17.67;;
33357;SDS011;19717;42.614;23.418;2022-09-01T04:12:39;29.45;;;17.30;;
33357;SDS011;19717;42.614;23.418;2022-09-01T04:15:05;27.90;;;17.83;;
33357;SDS011;19717;42.614;23.418;2022-09-01T04:17:32;32.38;;;18.50;;
33357;SDS011;19717;42.614;23.418;2022-09-01T04:20:17;28.75;;;17.88;;
33357;SDS011;19717;42.614;23.418;2022-09-01T04:22:48;27.95;;;17.77;;
33357;SDS011;19717;42.614;23.418;2022-09-01T04:25:15;34.08;;;18.92;;
33357;SDS011;19717;42.614;23.418;2022-09-01T04:27:41;32.00;;;18.40;;
33357;SDS011;19717;42.614;23.418;2022-09-01T04:30:08;29.70;;;18.65;;
33357;SDS011;19717;42.614;23.418;2022-09-01T04:32:37;27.58;;;18.10;;
33357;SDS011;19717;42.614;23.418;2022-09-01T04:35:05;25.95;;;17.17;;
33357;SDS011;19717;42.614;23.418;2022-09-01T04:37:31;27.30;;;17.35;;
33357;SDS011;19717;42.614;23.418;2022-09-01T04:40:00;24.75;;;16.17;;
33357;SDS011;19717;42.614;23.418;2022-09-01T04:42:28;29.33;;;18.63;;
33357;SDS011;19717;42.614;23.418;2022-09-01T04:44:56;31.23;;;18.85;;
33357;SDS011;19717;42.614;23.418;2022-09-01T04:47:24;39.40;;;21.38;;
33357;SDS011;19717;42.614;23.418;2022-09-01T04:49:58;31.73;;;21.00;;
33357;SDS011;19717;42.614;23.418;2022-09-01T04:52:26;35.28;;;22.05;;
33357;SDS011;19717;42.614;23.418;2022-09-01T04:54:52;37.03;;;23.88;;
33357;SDS011;19717;42.614;23.418;2022-09-01T04:57:19;42.33;;;25.52;;
33357;SDS011;19717;42.614;23.418;2022-09-01T04:59:45;47.08;;;27.75;;
33357;SDS011;19717;42.614;23.418;2022-09-01T05:02:11;46.78;;;27.27;;
33357;SDS011;19717;42.614;23.418;2022-09-01T05:04:37;48.30;;;28.58;;
33357;SDS011;19717;42.614;23.418;2022-09-01T05:07:05;48.45;;;28.35;;
33357;SDS011;19717;42.614;23.418;2022-09-01T05:09:33;44.40;;;26.92;;
33357;SDS011;19717;42.614;23.418;2022-09-01T05:12:00;49.97;;;26.92;;
33357;SDS011;19717;42.614;23.418;2022-09-01T05:14:38;41.67;;;26.13;;
33357;SDS011;19717;42.614;23.418;2022-09-01T05:17:07;41.88;;;25.92;;
33357;SDS011;19717;42.614;23.418;2022-09-01T05:19:35;49.58;;;26.92;;
33357;SDS011;19717;42.614;23.418;2022-09-01T05:22:01;47.75;;;25.48;;
33357;SDS011;19717;42.614;23.418;2022-09-01T05:24:28;52.70;;;27.88;;
33357;SDS011;19717;42.614;23.418;2022-09-01T05:26:56;52.60;;;26.67;;
33357;SDS011;19717;42.614;23.418;2022-09-01T05:29:23;55.88;;;28.95;;
33357;SDS011;19717;42.614;23.418;2022-09-01T05:31:52;52.67;;;28.48;;
33357;SDS011;19717;42.614;23.418;2022-09-01T05:34:19;59.97;;;29.02;;
33357;SDS011;19717;42.614;23.418;2022-09-01T05:36:50;63.15;;;29.05;;
33357;SDS011;19717;42.614;23.418;2022-09-01T05:39:16;57.35;;;30.23;;
33357;SDS011;19717;42.614;23.418;2022-09-01T05:41:43;60.58;;;29.42;;
33357;SDS011;19717;42.614;23.418;2022-09-01T05:44:10;50.17;;;28.98;;
33357;SDS011;19717;42.614;23.418;2022-09-01T05:46:37;55.58;;;28.38;;
33357;SDS011;19717;42.614;23.418;2022-09-01T05:49:05;48.83;;;26.73;;
33357;SDS011;19717;42.614;23.418;2022-09-01T05:51:33;53.80;;;27.90;;
33357;SDS011;19717;42.614;23.418;2022-09-01T05:54:01;53.15;;;26.60;;
33357;SDS011;19717;42.614;23.418;2022-09-01T05:56:28;49.45;;;25.25;;
33357;SDS011;19717;42.614;23.418;2022-09-01T05:58:55;49.03;;;25.83;;
33357;SDS011;19717;42.614;23.418;2022-09-01T06:01:24;52.03;;;27.60;;
33357;SDS011;19717;42.614;23.418;2022-09-01T06:03:52;57.95;;;27.98;;
33357;SDS011;19717;42.614;23.418;2022-09-01T06:06:22;49.25;;;25.63;;
33357;SDS011;19717;42.614;23.418;2022-09-01T06:08:49;62.30;;;27.58;;
33357;SDS011;19717;42.614;23.418;2022-09-01T06:11:16;58.58;;;28.90;;
33357;SDS011;19717;42.614;23.418;2022-09-01T06:13:43;49.80;;;27.15;;
33357;SDS011;19717;42.614;23.418;2022-09-01T06:16:11;50.97;;;27.13;;
33357;SDS011;19717;42.614;23.418;2022-09-01T06:18:39;56.97;;;27.80;;
33357;SDS011;19717;42.614;23.418;2022-09-01T06:21:07;54.42;;;27.20;;
33357;SDS011;19717;42.614;23.418;2022-09-01T06:23:34;62.63;;;29.63;;
33357;SDS011;19717;42.614;23.418;2022-09-01T06:26:00;60.92;;;29.33;;
33357;SDS011;19717;42.614;23.418;2022-09-01T06:28:28;56.17;;;28.88;;
33357;SDS011;19717;42.614;23.418;2022-09-01T06:30:54;57.35;;;28.13;;
33357;SDS011;19717;42.614;23.418;2022-09-01T06:33:21;56.05;;;28.80;;
33357;SDS011;19717;42.614;23.418;2022-09-01T06:35:49;55.83;;;28.65;;
33357;SDS011;19717;42.614;23.418;2022-09-01T06:38:16;53.05;;;26.80;;
33357;SDS011;19717;42.614;23.418;2022-09-01T06:40:43;57.47;;;28.02;;
33357;SDS011;19717;42.614;23.418;2022-09-01T06:43:10;61.13;;;27.20;;
33357;SDS011;19717;42.614;23.418;2022-09-01T06:45:54;58.50;;;28.13;;
33357;SDS011;19717;42.614;23.418;2022-09-01T06:48:20;58.15;;;27.20;;
33357;SDS011;19717;42.614;23.418;2022-09-01T06:50:47;57.85;;;29.30;;
33357;SDS011;19717;42.614;23.418;2022-09-01T06:53:13;57.55;;;28.38;;
33357;SDS011;19717;42.614;23.418;2022-09-01T06:55:42;53.72;;;27.50;;
33357;SDS011;19717;42.614;23.418;2022-09-01T06:58:11;51.80;;;26.52;;
33357;SDS011;19717;42.614;23.418;2022-09-01T07:00:39;54.58;;;27.77;;
33357;SDS011;19717;42.614;23.418;2022-09-01T07:03:06;53.13;;;27.42;;
33357;SDS011;19717;42.614;23.418;2022-09-01T07:05:33;50.53;;;27.10;;
33357;SDS011;19717;42.614;23.418;2022-09-01T07:08:01;53.38;;;26.95;;
33357;SDS011;19717;42.614;23.418;2022-09-01T07:10:31;53.22;;;28.00;;
33357;SDS011;19717;42.614;23.418;2022-09-01T07:12:57;51.78;;;28.25;;
33357;SDS011;19717;42.614;23.418;2022-09-01T07:15:25;54.30;;;27.85;;
33357;SDS011;19717;42.614;23.418;2022-09-01T07:17:55;54.35;;;28.33;;
33357;SDS011;19717;42.614;23.418;2022-09-01T07:20:23;58.15;;;29.75;;
33357;SDS011;19717;42.614;23.418;2022-09-01T07:22:49;56.63;;;30.00;;
33357;SDS011;19717;42.614;23.418;2022-09-01T07:25:16;61.53;;;30.05;;
33357;SDS011;19717;42.614;23.418;2022-09-01T07:27:42;59.78;;;31.05;;
33357;SDS011;19717;42.614;23.418;2022-09-01T07:30:18;55.80;;;30.77;;
33357;SDS011;19717;42.614;23.418;2022-09-01T07:32:45;58.05;;;28.90;;
33357;SDS011;19717;42.614;23.418;2022-09-01T07:35:13;45.75;;;27.58;;
33357;SDS011;19717;42.614;23.418;2022-09-01T07:37:39;51.88;;;26.80;;
33357;SDS011;19717;42.614;23.418;2022-09-01T07:40:07;50.38;;;28.48;;
33357;SDS011;19717;42.614;23.418;2022-09-01T07:42:33;53.00;;;30.25;;
33357;SDS011;19717;42.614;23.418;2022-09-01T07:45:00;56.85;;;30.80;;
33357;SDS011;19717;42.614;23.418;2022-09-01T07:47:31;51.20;;;29.27;;
33357;SDS011;19717;42.614;23.418;2022-09-01T07:50:01;52.60;;;29.10;;
33357;SDS011;19717;42.614;23.418;2022-09-01T07:52:29;43.00;;;26.77;;
33357;SDS011;19717;42.614;23.418;2022-09-01T07:54:55;48.35;;;27.48;;
33357;SDS011;19717;42.614;23.418;2022-09-01T07:57:21;43.42;;;26.83;;
33357;SDS011;19717;42.614;23.418;2022-09-01T07:59:47;42.63;;;25.77;;
33357;SDS011;19717;42.614;23.418;2022-09-01T08:02:17;47.22;;;26.20;;
33357;SDS011;19717;42.614;23.418;2022-09-01T08:04:44;40.95;;;25.02;;
33357;SDS011;19717;42.614;23.418;2022-09-01T08:07:10;39.30;;;25.30;;
33357;SDS011;19717;42.614;23.418;2022-09-01T08:09:36;40.50;;;26.10;;
33357;SDS011;19717;42.614;23.418;2022-09-01T08:12:03;38.05;;;23.77;;
33357;SDS011;19717;42.614;23.418;2022-09-01T08:14:30;35.80;;;23.85;;
33357;SDS011;19717;42.614;23.418;2022-09-01T08:16:56;37.17;;;21.73;;
33357;SDS011;19717;42.614;23.418;2022-09-01T08:19:22;32.53;;;21.10;;
33357;SDS011;19717;42.614;23.418;2022-09-01T08:21:48;36.42;;;20.95;;
33357;SDS011;19717;42.614;23.418;2022-09-01T08:24:14;27.05;;;18.50;;
33357;SDS011;19717;42.614;23.418;2022-09-01T08:26:40;35.17;;;18.95;;
33357;SDS011;19717;42.614;23.418;2022-09-01T08:29:06;31.42;;;18.40;;
33357;SDS011;19717;42.614;23.418;2022-09-01T08:31:33;29.52;;;18.30;;
33357;SDS011;19717;42.614;23.418;2022-09-01T08:34:00;42.72;;;19.85;;
33357;SDS011;19717;42.614;23.418;2022-09-01T08:36:29;28.63;;;18.92;;
33357;SDS011;19717;42.614;23.418;2022-09-01T08:38:55;33.90;;;19.60;;
33357;SDS011;19717;42.614;23.418;2022-09-01T08:43:49;32.53;;;19.15;;
33357;SDS011;19717;42.614;23.418;2022-09-01T08:46:20;30.52;;;17.90;;
33357;SDS011;19717;42.614;23.418;2022-09-01T08:48:54;31.45;;;18.27;;
33357;SDS011;19717;42.614;23.418;2022-09-01T08:51:37;28.75;;;18.45;;
33357;SDS011;19717;42.614;23.418;2022-09-01T08:54:06;25.48;;;16.75;;
33357;SDS011;19717;42.614;23.418;2022-09-01T08:56:35;29.25;;;18.80;;
33357;SDS011;19717;42.614;23.418;2022-09-01T08:59:03;30.98;;;18.67;;
33357;SDS011;19717;42.614;23.418;2022-09-01T09:01:40;29.00;;;19.42;;
33357;SDS011;19717;42.614;23.418;2022-09-01T09:06:44;33.30;;;18.90;;
33357;SDS011;19717;42.614;23.418;2022-09-01T09:09:12;28.77;;;18.00;;
33357;SDS011;19717;42.614;23.418;2022-09-01T09:14:18;25.70;;;16.58;;
33357;SDS011;19717;42.614;23.418;2022-09-01T09:16:48;25.73;;;16.40;;
33357;SDS011;19717;42.614;23.418;2022-09-01T09:22:00;24.75;;;16.90;;
33357;SDS011;19717;42.614;23.418;2022-09-01T09:26:56;24.92;;;16.88;;
33357;SDS011;19717;42.614;23.418;2022-09-01T09:29:23;25.88;;;16.17;;
33357;SDS011;19717;42.614;23.418;2022-09-01T09:32:00;25.75;;;16.88;;
33357;SDS011;19717;42.614;23.418;2022-09-01T09:34:32;25.80;;;16.30;;
33357;SDS011;19717;42.614;23.418;2022-09-01T09:39:24;25.38;;;16.27;;
33357;SDS011;19717;42.614;23.418;2022-09-01T09:42:01;23.98;;;16.33;;
33357;SDS011;19717;42.614;23.418;2022-09-01T09:44:31;25.52;;;15.85;;
33357;SDS011;19717;42.614;23.418;2022-09-01T09:46:57;29.48;;;17.40;;
33357;SDS011;19717;42.614;23.418;2022-09-01T09:49:31;28.70;;;16.55;;
33357;SDS011;19717;42.614;23.418;2022-09-01T09:54:28;24.02;;;14.80;;
33357;SDS011;19717;42.614;23.418;2022-09-01T09:57:27;24.67;;;14.75;;
33357;SDS011;19717;42.614;23.418;2022-09-01T09:59:48;26.30;;;15.88;;
33357;SDS011;19717;42.614;23.418;2022-09-01T10:04:58;25.38;;;14.18;;
33357;SDS011;19717;42.614;23.418;2022-09-01T10:09:53;21.00;;;13.20;;
33357;SDS011;19717;42.614;23.418;2022-09-01T10:12:20;25.00;;;13.00;;
33357;SDS011;19717;42.614;23.418;2022-09-01T10:14:50;20.88;;;12.75;;
33357;SDS011;19717;42.614;23.418;2022-09-01T10:17:20;20.17;;;13.40;;
33357;SDS011;19717;42.614;23.418;2022-09-01T10:19:59;18.25;;;12.27;;
33357;SDS011;19717;42.614;23.418;2022-09-01T10:22:31;22.02;;;12.85;;
33357;SDS011;19717;42.614;23.418;2022-09-01T10:24:58;20.52;;;12.70;;
33357;SDS011;19717;42.614;23.418;2022-09-01T10:27:26;16.83;;;12.35;;
33357;SDS011;19717;42.614;23.418;2022-09-01T10:30:36;20.77;;;14.73;;
33357;SDS011;19717;42.614;23.418;2022-09-01T10:32:53;20.10;;;13.20;;
33357;SDS011;19717;42.614;23.418;2022-09-01T10:35:30;22.42;;;14.55;;
33357;SDS011;19717;42.614;23.418;2022-09-01T10:37:57;22.45;;;14.00;;
33357;SDS011;19717;42.614;23.418;2022-09-01T10:42:54;21.48;;;13.30;;
33357;SDS011;19717;42.614;23.418;2022-09-01T10:48:20;22.08;;;12.70;;
33357;SDS011;19717;42.614;23.418;2022-09-01T10:50:43;15.32;;;11.27;;
33357;SDS011;19717;42.614;23.418;2022-09-01T10:53:26;21.70;;;12.02;;
33357;SDS011;19717;42.614;23.418;2022-09-01T10:56:11;18.63;;;12.00;;
33357;SDS011;19717;42.614;23.418;2022-09-01T10:58:48;16.58;;;11.32;;
33357;SDS011;19717;42.614;23.418;2022-09-01T11:01:14;18.55;;;11.82;;
33357;SDS011;19717;42.614;23.418;2022-09-01T11:03:52;18.95;;;11.65;;
33357;SDS011;19717;42.614;23.418;2022-09-01T11:09:04;19.40;;;11.65;;
33357;SDS011;19717;42.614;23.418;2022-09-01T11:11:42;15.32;;;11.70;;
33357;SDS011;19717;42.614;23.418;2022-09-01T11:14:18;19.70;;;12.40;;
33357;SDS011;19717;42.614;23.418;2022-09-01T11:28:13;20.58;;;12.93;;
33357;SDS011;19717;42.614;23.418;2022-09-01T11:30:20;24.00;;;12.32;;
33357;SDS011;19717;42.614;23.418;2022-09-01T11:32:48;22.90;;;13.02;;
33357;SDS011;19717;42.614;23.418;2022-09-01T11:35:17;24.38;;;12.55;;
33357;SDS011;19717;42.614;23.418;2022-09-01T11:37:47;19.83;;;11.43;;
33357;SDS011;19717;42.614;23.418;2022-09-01T11:40:19;22.27;;;12.45;;
33357;SDS011;19717;42.614;23.418;2022-09-01T11:45:24;19.50;;;12.30;;
33357;SDS011;19717;42.614;23.418;2022-09-01T11:48:05;17.48;;;11.95;;
33357;SDS011;19717;42.614;23.418;2022-09-01T11:50:33;15.25;;;12.07;;
33357;SDS011;19717;42.614;23.418;2022-09-01T11:53:01;22.00;;;12.25;;
33357;SDS011;19717;42.614;23.418;2022-09-01T11:58:01;19.05;;;12.05;;
33357;SDS011;19717;42.614;23.418;2022-09-01T12:00:35;18.33;;;11.68;;
33357;SDS011;19717;42.614;23.418;2022-09-01T12:03:02;18.08;;;12.05;;
33357;SDS011;19717;42.614;23.418;2022-09-01T12:05:34;16.15;;;11.55;;
33357;SDS011;19717;42.614;23.418;2022-09-01T12:08:14;15.52;;;11.32;;
33357;SDS011;19717;42.614;23.418;2022-09-01T12:10:42;19.27;;;12.43;;
33357;SDS011;19717;42.614;23.418;2022-09-01T12:13:10;18.98;;;11.80;;
33357;SDS011;19717;42.614;23.418;2022-09-01T12:15:38;18.55;;;12.25;;
33357;SDS011;19717;42.614;23.418;2022-09-01T12:20:35;20.20;;;12.50;;
33357;SDS011;19717;42.614;23.418;2022-09-01T12:23:25;21.25;;;13.07;;
33357;SDS011;19717;42.614;23.418;2022-09-01T12:25:52;23.17;;;12.90;;
33357;SDS011;19717;42.614;23.418;2022-09-01T12:28:20;15.85;;;11.75;;
33357;SDS011;19717;42.614;23.418;2022-09-01T12:30:47;16.63;;;12.57;;
33357;SDS011;19717;42.614;23.418;2022-09-01T12:33:14;17.52;;;12.38;;
33357;SDS011;19717;42.614;23.418;2022-09-01T12:35:42;18.35;;;12.25;;
33357;SDS011;19717;42.614;23.418;2022-09-01T12:38:42;20.63;;;11.85;;
33357;SDS011;19717;42.614;23.418;2022-09-01T12:41:01;20.30;;;12.68;;
33357;SDS011;19717;42.614;23.418;2022-09-01T12:43:28;19.73;;;12.57;;
33357;SDS011;19717;42.614;23.418;2022-09-01T12:45:55;19.88;;;12.82;;
33357;SDS011;19717;42.614;23.418;2022-09-01T12:48:24;19.75;;;12.02;;
33357;SDS011;19717;42.614;23.418;2022-09-01T12:50:52;19.50;;;11.93;;
33357;SDS011;19717;42.614;23.418;2022-09-01T12:53:19;22.40;;;12.55;;
33357;SDS011;19717;42.614;23.418;2022-09-01T12:58:50;15.82;;;13.05;;
33357;SDS011;19717;42.614;23.418;2022-09-01T13:01:30;20.77;;;12.65;;
33357;SDS011;19717;42.614;23.418;2022-09-01T13:06:32;26.52;;;13.18;;
33357;SDS011;19717;42.614;23.418;2022-09-01T13:08:58;23.90;;;12.75;;
33357;SDS011;19717;42.614;23.418;2022-09-01T13:11:24;23.88;;;13.60;;
33357;SDS011;19717;42.614;23.418;2022-09-01T13:13:50;27.30;;;13.18;;
33357;SDS011;19717;42.614;23.418;2022-09-01T13:16:16;23.90;;;13.20;;
33357;SDS011;19717;42.614;23.418;2022-09-01T13:18:43;20.27;;;13.25;;
33357;SDS011;19717;42.614;23.418;2022-09-01T13:21:09;28.50;;;13.63;;
33357;SDS011;19717;42.614;23.418;2022-09-01T13:23:36;17.30;;;13.10;;
33357;SDS011;19717;42.614;23.418;2022-09-01T13:26:02;25.83;;;13.18;;
33357;SDS011;19717;42.614;23.418;2022-09-01T13:28:29;17.60;;;12.80;;
33357;SDS011;19717;42.614;23.418;2022-09-01T13:30:56;18.67;;;13.35;;
33357;SDS011;19717;42.614;23.418;2022-09-01T13:33:23;18.35;;;12.57;;
33357;SDS011;19717;42.614;23.418;2022-09-01T13:35:50;18.50;;;12.93;;
33357;SDS011;19717;42.614;23.418;2022-09-01T13:38:16;19.67;;;13.10;;
33357;SDS011;19717;42.614;23.418;2022-09-01T13:40:43;19.20;;;13.60;;
33357;SDS011;19717;42.614;23.418;2022-09-01T13:43:11;21.42;;;13.63;;
33357;SDS011;19717;42.614;23.418;2022-09-01T13:45:37;21.02;;;14.20;;
33357;SDS011;19717;42.614;23.418;2022-09-01T13:48:04;24.13;;;14.93;;
33357;SDS011;19717;42.614;23.418;2022-09-01T13:50:31;21.50;;;15.05;;
33357;SDS011;19717;42.614;23.418;2022-09-01T13:52:57;26.92;;;14.70;;
33357;SDS011;19717;42.614;23.418;2022-09-01T13:55:27;20.00;;;14.32;;
33357;SDS011;19717;42.614;23.418;2022-09-01T13:57:53;25.27;;;15.02;;
33357;SDS011;19717;42.614;23.418;2022-09-01T14:00:22;22.92;;;16.13;;
33357;SDS011;19717;42.614;23.418;2022-09-01T14:02:49;20.25;;;15.55;;
33357;SDS011;19717;42.614;23.418;2022-09-01T14:05:25;22.90;;;15.45;;
33357;SDS011;19717;42.614;23.418;2022-09-01T14:07:51;24.67;;;16.27;;
33357;SDS011;19717;42.614;23.418;2022-09-01T14:10:18;20.08;;;14.50;;
33357;SDS011;19717;42.614;23.418;2022-09-01T14:12:44;17.77;;;13.25;;
33357;SDS011;19717;42.614;23.418;2022-09-01T14:15:11;17.58;;;13.52;;
33357;SDS011;19717;42.614;23.418;2022-09-01T14:17:37;18.25;;;12.90;;
33357;SDS011;19717;42.614;23.418;2022-09-01T14:20:07;19.25;;;13.02;;
33357;SDS011;19717;42.614;23.418;2022-09-01T14:22:34;17.42;;;13.32;;
33357;SDS011;19717;42.614;23.418;2022-09-01T14:25:00;20.00;;;14.25;;
33357;SDS011;19717;42.614;23.418;2022-09-01T14:27:26;19.92;;;13.52;;
33357;SDS011;19717;42.614;23.418;2022-09-01T14:29:52;21.02;;;13.48;;
33357;SDS011;19717;42.614;23.418;2022-09-01T14:32:18;21.63;;;13.98;;
33357;SDS011;19717;42.614;23.418;2022-09-01T14:37:16;18.77;;;13.75;;
33357;SDS011;19717;42.614;23.418;2022-09-01T14:39:47;17.67;;;13.45;;
33357;SDS011;19717;42.614;23.418;2022-09-01T14:42:13;17.02;;;13.85;;
33357;SDS011;19717;42.614;23.418;2022-09-01T14:44:39;19.77;;;13.32;;
33357;SDS011;19717;42.614;23.418;2022-09-01T14:47:06;18.30;;;13.02;;
33357;SDS011;19717;42.614;23.418;2022-09-01T14:49:32;16.88;;;13.05;;
33357;SDS011;19717;42.614;23.418;2022-09-01T14:52:04;19.15;;;13.68;;
33357;SDS011;19717;42.614;23.418;2022-09-01T14:54:35;18.75;;;13.02;;
33357;SDS011;19717;42.614;23.418;2022-09-01T14:57:01;17.45;;;12.82;;
33357;SDS011;19717;42.614;23.418;2022-09-01T14:59:28;23.45;;;13.32;;
33357;SDS011;19717;42.614;23.418;2022-09-01T15:01:54;19.58;;;13.82;;
33357;SDS011;19717;42.614;23.418;2022-09-01T15:04:21;19.92;;;13.77;;
33357;SDS011;19717;42.614;23.418;2022-09-01T15:06:47;19.42;;;13.73;;
33357;SDS011;19717;42.614;23.418;2022-09-01T15:09:13;17.98;;;13.98;;
33357;SDS011;19717;42.614;23.418;2022-09-01T15:11:40;17.85;;;13.55;;
33357;SDS011;19717;42.614;23.418;2022-09-01T15:14:06;20.92;;;13.90;;
33357;SDS011;19717;42.614;23.418;2022-09-01T15:16:33;19.60;;;13.45;;